Time;durP1;ratioP1;P1;durP2;ratioP2;P2;SDS_P1;SDS_P2;PMS_P1;PMS_P2;Temp;Humidity;BMP_temperature;BMP_pressure;BME280_temperature;BME280_humidity;BME280_pressure;Samples;Min_cycle;Max_cycle;Signal;HPM_P1;HPM_P2
2023/06/18 00:03:13;;;;;;;9.00;5.55;;;;;;;24.21;35.61;101185.06;16119344;19;130422;-49
2023/06/18 00:08:35;;;;;;;7.00;5.30;;;;;;;24.20;35.78;101184.22;16120383;19;129462;-54
2023/06/18 00:13:57;;;;;;;10.25;5.38;;;;;;;24.20;35.64;101184.22;16118597;19;130100;-50
2023/06/18 00:19:19;;;;;;;16.70;5.82;;;;;;;24.19;35.97;101179.75;16113108;19;130281;-53
2023/06/18 00:24:41;;;;;;;16.20;5.57;;;;;;;24.18;35.90;101180.88;16120012;19;129478;-53
2023/06/18 00:30:05;;;;;;;13.25;5.40;;;;;;;24.18;35.98;101178.06;16114662;19;129283;-54
2023/06/18 00:35:27;;;;;;;9.85;5.40;;;;;;;24.18;36.08;101172.47;16117236;19;129101;-54
2023/06/18 00:40:49;;;;;;;11.63;5.18;;;;;;;24.18;35.93;101166.88;16117551;19;130829;-54
2023/06/18 00:46:12;;;;;;;12.52;5.72;;;;;;;24.16;35.98;101157.94;16112004;19;130086;-52
2023/06/18 00:51:37;;;;;;;12.40;5.05;;;;;;;24.15;36.06;101153.47;16115345;19;132633;-50
2023/06/18 00:56:59;;;;;;;11.20;5.28;;;;;;;24.14;35.74;101149.00;16117157;19;131881;-54
2023/06/18 01:02:25;;;;;;;9.85;4.93;;;;;;;24.13;35.74;101152.91;16110680;19;130947;-54
2023/06/18 01:07:53;;;;;;;10.40;5.05;;;;;;;24.14;35.65;101151.78;16112700;19;130661;-54
2023/06/18 01:13:16;;;;;;;23.85;5.72;;;;;;;24.14;35.29;101142.56;16113162;19;133841;-52
2023/06/18 01:18:44;;;;;;;11.18;5.30;;;;;;;24.15;35.53;101144.25;16112522;19;130855;-48
2023/06/18 01:24:19;;;;;;;13.68;5.13;;;;;;;24.15;35.51;101133.06;16105695;19;131231;-51
2023/06/18 01:29:42;;;;;;;7.10;4.63;;;;;;;24.14;35.25;101131.38;16115833;19;129756;-52
2023/06/18 01:35:05;;;;;;;10.27;4.90;;;;;;;24.12;35.04;101129.72;16109457;19;129866;-50
2023/06/18 01:40:37;;;;;;;9.32;4.97;;;;;;;24.12;35.16;101120.50;16111316;19;129945;-49
2023/06/18 01:46:05;;;;;;;16.00;5.00;;;;;;;24.15;35.38;101117.13;16111039;19;130997;-50
2023/06/18 01:51:30;;;;;;;9.45;5.03;;;;;;;24.11;35.38;101125.25;16114393;19;130980;-48
2023/06/18 01:56:52;;;;;;;7.50;4.47;;;;;;;24.10;35.45;101125.53;16108275;19;131277;-53
2023/06/18 02:02:14;;;;;;;8.90;5.25;;;;;;;24.09;35.28;101118.25;16111862;19;130397;-48
2023/06/18 02:07:36;;;;;;;7.80;5.05;;;;;;;24.07;35.55;101117.69;16110352;19;130510;-50
2023/06/18 02:12:58;;;;;;;10.15;5.07;;;;;;;24.04;35.09;101112.66;16112138;19;131077;-49
2023/06/18 02:18:21;;;;;;;8.20;5.03;;;;;;;24.03;35.31;101097.84;16108771;19;130922;-49
2023/06/18 02:23:43;;;;;;;8.10;4.85;;;;;;;24.02;35.27;101098.97;16103389;19;130496;-46
2023/06/18 02:29:05;;;;;;;6.97;4.63;;;;;;;24.03;35.20;101108.19;16107210;19;130801;-48
2023/06/18 02:34:27;;;;;;;6.45;4.88;;;;;;;24.03;34.99;101103.44;16106368;19;131508;-53
2023/06/18 02:39:49;;;;;;;7.00;4.82;;;;;;;24.04;35.35;101093.09;16099258;19;130368;-49
2023/06/18 02:45:12;;;;;;;6.97;5.40;;;;;;;24.04;35.04;101104.28;16099577;19;130191;-48
2023/06/18 02:50:35;;;;;;;7.85;4.90;;;;;;;24.04;34.98;101112.66;16113423;19;132645;-49
2023/06/18 02:55:57;;;;;;;11.82;5.07;;;;;;;24.03;34.97;101108.19;16106435;19;130228;-46
2023/06/18 03:01:31;;;;;;;6.82;5.13;;;;;;;24.03;34.69;101108.19;16108613;19;130072;-47
2023/06/18 03:06:54;;;;;;;31.95;6.43;;;;;;;24.02;35.14;101112.09;16107747;19;130725;-48
2023/06/18 03:12:16;;;;;;;11.60;6.05;;;;;;;23.94;34.81;101105.94;16109455;19;130924;-51
2023/06/18 03:17:38;;;;;;;11.65;6.47;;;;;;;23.89;34.30;101108.72;16107119;19;130845;-46
2023/06/18 03:23:00;;;;;;;19.27;6.78;;;;;;;23.85;34.61;101102.03;16108224;19;130827;-51
2023/06/18 03:28:22;;;;;;;15.68;6.78;;;;;;;23.81;34.82;101098.97;16121842;19;130473;-48
2023/06/18 03:33:44;;;;;;;13.95;6.32;;;;;;;23.78;34.49;101101.47;16117262;19;129681;-45
2023/06/18 03:39:06;;;;;;;11.57;6.40;;;;;;;23.74;34.28;101095.59;16116065;19;129641;-52
2023/06/18 03:44:28;;;;;;;18.20;7.22;;;;;;;23.73;34.23;101093.91;16117541;19;130891;-47
2023/06/18 03:49:50;;;;;;;17.80;6.88;;;;;;;23.71;34.18;101089.72;16119221;19;131399;-51
2023/06/18 03:55:12;;;;;;;14.90;6.75;;;;;;;23.69;34.05;101087.22;16115314;19;130619;-49
2023/06/18 04:00:34;;;;;;;17.90;6.25;;;;;;;23.68;34.04;101093.94;16118365;19;130019;-50
2023/06/18 04:05:56;;;;;;;14.60;6.40;;;;;;;23.65;34.19;101109.25;16119736;19;129950;-48
2023/06/18 04:11:18;;;;;;;11.18;6.45;;;;;;;23.64;33.73;101107.56;16121024;19;130937;-48
2023/06/18 04:16:40;;;;;;;9.57;5.88;;;;;;;23.63;33.48;101116.25;16115743;19;130523;-47
2023/06/18 04:22:02;;;;;;;15.02;6.20;;;;;;;23.61;33.76;101119.31;16110828;19;129655;-49
2023/06/18 04:27:23;;;;;;;19.10;6.53;;;;;;;23.60;33.79;101120.44;16115717;19;129448;-46
2023/06/18 04:32:45;;;;;;;12.60;5.97;;;;;;;23.58;33.85;101117.06;16115990;19;129612;-48
2023/06/18 04:38:07;;;;;;;15.70;6.55;;;;;;;23.56;33.86;101118.44;16110853;19;130560;-48
2023/06/18 04:43:29;;;;;;;10.05;6.07;;;;;;;23.54;33.94;101123.47;16117049;19;133529;-45
2023/06/18 04:48:51;;;;;;;9.98;5.80;;;;;;;23.54;34.06;101109.50;16110084;19;131284;-51
2023/06/18 04:54:13;;;;;;;11.27;5.97;;;;;;;23.52;34.21;101109.75;16116436;19;130654;-52
2023/06/18 04:59:39;;;;;;;13.38;5.80;;;;;;;23.51;33.73;101114.50;16109373;19;130682;-48
2023/06/18 05:05:00;;;;;;;9.88;5.28;;;;;;;23.52;33.59;101126.50;16111715;19;129776;-50
2023/06/18 05:10:23;;;;;;;7.38;5.22;;;;;;;23.49;33.50;101135.47;16112140;19;130061;-50
2023/06/18 05:15:45;;;;;;;6.53;4.75;;;;;;;23.50;33.13;101218.94;16108449;19;131330;-48
2023/06/18 05:21:07;;;;;;;9.05;5.60;;;;;;;23.52;32.90;101204.69;16111150;19;130769;-48
2023/06/18 05:26:31;;;;;;;15.52;6.00;;;;;;;23.51;33.02;101219.78;16112749;19;131928;-47
2023/06/18 05:31:52;;;;;;;9.15;4.82;;;;;;;23.50;33.01;101229.28;16110683;19;129154;-50
2023/06/18 05:37:14;;;;;;;14.80;5.60;;;;;;;23.50;32.91;101234.88;16112711;19;134455;-49
2023/06/18 05:42:39;;;;;;;8.48;5.55;;;;;;;23.52;33.01;101243.78;16111640;19;130106;-47
2023/06/18 05:48:00;;;;;;;9.25;6.35;;;;;;;23.51;33.35;101234.59;16102727;19;130090;-51
2023/06/18 05:53:22;;;;;;;9.05;6.10;;;;;;;23.51;33.64;101239.31;16105817;19;129664;-46
2023/06/18 05:58:45;;;;;;;10.77;6.57;;;;;;;23.51;33.80;101247.69;16107672;19;131698;-46
2023/06/18 06:04:06;;;;;;;14.70;5.90;;;;;;;23.50;33.95;101235.69;16107309;19;131117;-46
2023/06/18 06:09:29;;;;;;;13.23;6.05;;;;;;;23.51;34.55;101236.53;16105020;19;129263;-51
2023/06/18 06:14:51;;;;;;;8.45;5.78;;;;;;;23.48;34.46;101223.97;16107408;19;130407;-46
2023/06/18 06:20:13;;;;;;;6.20;5.15;;;;;;;23.51;34.13;101223.41;16110284;19;129894;-48
2023/06/18 06:25:36;;;;;;;13.27;5.35;;;;;;;23.54;34.26;101213.66;16109350;19;130723;-51
2023/06/18 06:30:58;;;;;;;16.63;6.13;;;;;;;23.54;34.45;101208.06;16104556;19;130008;-47
2023/06/18 06:36:20;;;;;;;12.88;5.88;;;;;;;23.56;34.66;101217.00;16107361;19;131042;-51
2023/06/18 06:41:42;;;;;;;9.57;5.57;;;;;;;23.60;34.95;101220.97;16105775;19;130970;-47
2023/06/18 06:47:04;;;;;;;46.00;8.70;;;;;;;23.61;35.13;101231.03;16105530;19;129689;-47
2023/06/18 06:52:26;;;;;;;39.90;6.35;;;;;;;23.58;34.58;101230.69;16106674;19;131009;-49
2023/06/18 06:57:48;;;;;;;29.38;6.40;;;;;;;23.62;34.93;101238.31;16108755;19;131301;-46
2023/06/18 07:03:10;;;;;;;29.85;6.63;;;;;;;23.63;34.47;101234.38;16124448;19;130519;-48
2023/06/18 07:08:32;;;;;;;26.90;6.10;;;;;;;23.65;34.99;101236.91;16121414;19;129971;-47
2023/06/18 07:13:54;;;;;;;11.80;5.70;;;;;;;23.66;34.72;101236.63;16122413;19;130129;-45
2023/06/18 07:19:16;;;;;;;16.55;5.50;;;;;;;23.69;34.64;101226.88;16121445;19;129750;-47
2023/06/18 07:24:38;;;;;;;14.93;5.32;;;;;;;23.71;34.44;101226.59;16120960;19;130610;-48
2023/06/18 07:30:00;;;;;;;16.65;4.88;;;;;;;23.72;34.31;101231.91;16118981;19;131233;-49
2023/06/18 07:35:22;;;;;;;9.70;5.10;;;;;;;23.74;34.36;101231.66;16120763;19;129869;-47
2023/06/18 07:40:44;;;;;;;10.20;4.95;;;;;;;23.74;34.21;101235.25;16118960;19;130796;-49
2023/06/18 07:46:06;;;;;;;7.90;5.10;;;;;;;23.75;34.34;101233.31;16117416;19;131257;-51
2023/06/18 07:51:29;;;;;;;10.38;4.80;;;;;;;23.75;34.48;101234.16;16117407;19;132308;-49
2023/06/18 07:56:50;;;;;;;10.32;5.13;;;;;;;23.74;34.08;101228.84;16121429;19;129938;-49
2023/06/18 08:02:12;;;;;;;8.80;4.97;;;;;;;23.73;34.73;101228.00;16122900;19;130456;-48
2023/06/18 08:07:35;;;;;;;14.13;5.75;;;;;;;23.74;34.99;101224.09;16117073;19;130844;-48
2023/06/18 08:12:57;;;;;;;11.02;4.90;;;;;;;23.71;35.70;101221.00;16117261;19;129569;-48
2023/06/18 08:18:19;;;;;;;15.73;5.80;;;;;;;23.72;36.42;101211.53;16119191;19;130299;-50
2023/06/18 08:23:41;;;;;;;12.38;5.63;;;;;;;23.72;36.97;101205.94;16118959;19;130652;-52
2023/06/18 08:29:02;;;;;;;10.70;5.30;;;;;;;23.73;37.52;101208.44;16119117;19;129792;-50
2023/06/18 08:34:24;;;;;;;11.32;5.47;;;;;;;23.75;38.02;101205.38;16118936;19;129531;-51
2023/06/18 08:39:46;;;;;;;12.55;5.80;;;;;;;23.75;38.40;101213.78;16114849;19;130664;-52
2023/06/18 08:45:08;;;;;;;15.73;5.72;;;;;;;23.82;40.47;101197.56;16115343;19;129779;-47
2023/06/18 08:50:32;;;;;;;17.70;6.13;;;;;;;23.84;41.61;101192.56;16115056;19;129589;-49
2023/06/18 08:55:55;;;;;;;15.80;6.18;;;;;;;23.84;41.37;101178.59;16116396;19;134294;-50
2023/06/18 09:01:18;;;;;;;15.80;5.82;;;;;;;23.76;41.65;101165.13;16112265;19;129709;-49
2023/06/18 09:06:42;;;;;;;7.63;6.00;;;;;;;23.64;41.95;101152.25;16117442;19;129213;-53
2023/06/18 09:12:04;;;;;;;14.63;6.45;;;;;;;23.26;42.50;101143.19;16107969;19;130272;-51
2023/06/18 09:17:26;;;;;;;17.38;7.10;;;;;;;23.17;42.26;101164.34;16109143;19;131116;-50
2023/06/18 09:22:49;;;;;;;18.30;6.15;;;;;;;22.89;42.41;101169.22;16109875;19;129664;-53
2023/06/18 09:28:12;;;;;;;15.02;6.35;;;;;;;22.84;42.62;101181.16;16118410;19;130724;-51
2023/06/18 09:33:35;;;;;;;11.73;5.82;;;;;;;22.72;43.29;101178.59;16114812;19;130589;-52
2023/06/18 09:38:57;;;;;;;12.18;6.55;;;;;;;22.93;43.08;101172.31;16112850;19;129150;-54
2023/06/18 09:44:21;;;;;;;12.85;7.00;;;;;;;23.00;43.22;101175.72;16114258;19;130906;-48
2023/06/18 09:49:45;;;;;;;10.48;6.10;;;;;;;23.02;43.02;101163.16;16113917;19;130674;-49
2023/06/18 09:55:28;;;;;;;12.98;6.50;;;;;;;23.16;42.78;101171.03;16113283;19;129652;-46
2023/06/18 10:01:02;;;;;;;7.50;6.30;;;;;;;23.06;43.93;101174.63;16113749;19;130279;-49
2023/06/18 10:06:25;;;;;;;15.70;6.22;;;;;;;23.11;43.75;101176.63;16112594;19;130585;-48
2023/06/18 10:11:54;;;;;;;10.07;6.55;;;;;;;22.87;44.74;101172.25;16099413;19;131280;-51
2023/06/18 10:17:25;;;;;;;19.88;7.20;;;;;;;22.55;45.63;101163.94;16105974;19;129529;-47
2023/06/18 10:22:57;;;;;;;15.88;7.22;;;;;;;22.40;46.67;101151.56;16104731;19;131855;-47
2023/06/18 10:28:19;;;;;;;25.95;7.93;;;;;;;22.39;46.91;101160.22;16110095;19;130233;-52
2023/06/18 10:33:42;;;;;;;13.82;7.40;;;;;;;22.71;45.88;101151.81;16102191;19;129549;-51
2023/06/18 10:39:05;;;;;;;9.95;6.53;;;;;;;22.95;45.88;101145.84;16102585;19;129799;-50
2023/06/18 10:44:50;;;;;;;7.63;6.63;;;;;;;23.08;45.54;101143.66;16102004;19;130961;-48
2023/06/18 10:50:17;;;;;;;13.90;7.57;;;;;;;22.94;46.19;101144.16;16104843;19;129630;-52
2023/06/18 10:55:41;;;;;;;8.35;7.47;;;;;;;22.97;46.14;101146.41;16105310;19;129673;-47
2023/06/18 11:01:06;;;;;;;12.65;7.40;;;;;;;22.98;45.60;101156.47;16106094;19;129636;-53
2023/06/18 11:06:29;;;;;;;;;;;;;;;23.09;44.62;101145.34;16110824;19;129743;-49
2023/06/18 11:11:51;;;;;;;10.15;7.68;;;;;;;23.14;44.96;101148.16;16109294;19;130783;-52
2023/06/18 11:17:15;;;;;;;8.10;7.30;;;;;;;23.04;45.04;101133.03;16109573;19;130164;-53
2023/06/18 11:22:37;;;;;;;10.90;7.85;;;;;;;23.09;45.50;101126.63;16109077;19;129547;-52
2023/06/18 11:28:01;;;;;;;8.13;7.00;;;;;;;23.21;45.02;101129.22;16110558;19;130807;-52
2023/06/18 11:33:26;;;;;;;9.48;7.38;;;;;;;23.35;44.33;101119.22;16101590;19;129557;-52
2023/06/18 11:38:51;;;;;;;11.05;6.63;;;;;;;23.45;44.19;101104.44;16108157;19;131609;-50
2023/06/18 11:44:13;;;;;;;12.77;6.72;;;;;;;23.52;43.51;101101.38;16110906;19;130404;-53
2023/06/18 11:49:36;;;;;;;19.40;7.00;;;;;;;23.51;45.20;101086.59;16120048;19;130576;-51
2023/06/18 11:55:04;;;;;;;13.23;7.28;;;;;;;23.50;44.78;101075.72;16122119;19;129528;-49
2023/06/18 12:00:26;;;;;;;11.57;6.80;;;;;;;23.54;44.13;101067.59;16117100;19;130102;-46
2023/06/18 12:05:48;;;;;;;8.52;6.90;;;;;;;23.71;42.96;101064.59;16114336;19;129642;-51
2023/06/18 12:11:43;;;;;;;11.63;7.90;;;;;;;23.77;41.96;101061.53;16116325;19;129853;-49
2023/06/18 12:17:17;;;;;;;9.20;6.60;;;;;;;23.81;41.89;101053.41;16119988;19;131443;-49
2023/06/18 12:22:40;;;;;;;8.07;6.10;;;;;;;23.84;42.26;101049.22;16121215;19;129455;-49
2023/06/18 12:28:02;;;;;;;11.80;6.15;;;;;;;23.86;42.16;101042.25;16118288;19;129598;-47
2023/06/18 12:33:26;;;;;;;9.35;6.25;;;;;;;23.85;41.90;101034.13;16118236;19;130612;-49
2023/06/18 12:38:48;;;;;;;10.35;5.88;;;;;;;23.83;40.57;101037.22;16117695;19;131944;-50
2023/06/18 12:44:10;;;;;;;8.70;5.45;;;;;;;23.81;40.25;101031.06;16110118;19;130639;-47
2023/06/18 12:49:40;;;;;;;9.75;5.25;;;;;;;23.82;40.15;101030.78;16113584;19;131201;-48
2023/06/18 12:55:02;;;;;;;9.05;5.32;;;;;;;23.87;40.29;101020.72;16110658;19;130165;-46
2023/06/18 13:00:24;;;;;;;8.48;5.03;;;;;;;23.93;40.45;101020.44;16112884;19;129877;-57
2023/06/18 13:05:47;;;;;;;10.20;5.30;;;;;;;24.01;40.40;101023.78;16113323;19;129613;-52
2023/06/18 13:11:09;;;;;;;10.45;5.82;;;;;;;24.07;40.15;101014.28;16117109;19;131637;-52
2023/06/18 13:16:31;;;;;;;14.85;6.22;;;;;;;23.88;40.14;101006.47;16116105;19;131774;-53
2023/06/18 13:21:53;;;;;;;6.43;5.82;;;;;;;23.78;40.61;101003.69;16116690;19;129617;-50
2023/06/18 13:27:15;;;;;;;15.38;5.93;;;;;;;23.93;40.42;101012.06;16117003;19;129854;-48
2023/06/18 13:32:37;;;;;;;12.10;5.85;;;;;;;24.01;40.01;100995.84;16112586;19;129955;-45
2023/06/18 13:38:00;;;;;;;8.15;5.07;;;;;;;24.09;39.57;101003.66;16111972;19;130604;-51
2023/06/18 13:43:22;;;;;;;10.10;5.38;;;;;;;24.23;39.68;100988.00;16111342;19;130011;-49
2023/06/18 13:48:44;;;;;;;10.15;5.15;;;;;;;24.39;38.94;100973.97;16109487;19;129551;-47
2023/06/18 13:54:06;;;;;;;8.15;4.97;;;;;;;24.52;38.78;100981.75;16107837;19;129904;-53
2023/06/18 13:59:28;;;;;;;8.85;5.45;;;;;;;24.58;38.55;100969.44;16108829;19;129184;-46
2023/06/18 14:04:50;;;;;;;13.70;5.47;;;;;;;24.61;38.46;100972.78;16110053;19;130769;-49
2023/06/18 14:10:12;;;;;;;9.25;5.40;;;;;;;24.58;38.22;100958.25;16104362;19;129465;-49
2023/06/18 14:15:37;;;;;;;12.95;5.22;;;;;;;24.66;38.80;100961.56;16101398;19;129756;-53
2023/06/18 14:20:59;;;;;;;10.55;5.38;;;;;;;24.73;38.56;100956.50;16107623;19;131584;-45
2023/06/18 14:26:21;;;;;;;9.30;5.40;;;;;;;24.75;38.08;100957.03;16106079;19;130856;-49
2023/06/18 14:31:43;;;;;;;7.65;5.40;;;;;;;24.81;38.32;100943.84;16110171;19;129196;-50
2023/06/18 14:37:05;;;;;;;7.43;4.88;;;;;;;24.83;38.59;100936.00;16105208;19;130402;-50
2023/06/18 14:42:27;;;;;;;5.28;4.70;;;;;;;24.98;38.61;100935.13;16106856;19;130821;-48
2023/06/18 14:47:48;;;;;;;8.10;4.88;;;;;;;25.04;37.64;100933.97;16103705;19;130506;-46
2023/06/18 14:53:15;;;;;;;7.13;5.05;;;;;;;25.13;38.05;100934.19;16107652;19;130060;-45
2023/06/18 14:58:37;;;;;;;7.50;5.82;;;;;;;25.18;37.29;100937.78;16105073;19;129736;-53
2023/06/18 15:03:59;;;;;;;7.50;5.15;;;;;;;25.15;37.34;100948.72;16107331;19;131797;-46
2023/06/18 15:09:21;;;;;;;10.73;5.85;;;;;;;25.11;36.92;100936.44;16106387;19;129444;-48
2023/06/18 15:14:43;;;;;;;10.27;5.15;;;;;;;25.07;36.43;100930.59;16100234;19;131356;-57
2023/06/18 15:20:06;;;;;;;8.48;5.20;;;;;;;24.98;36.34;100933.16;16105691;19;132114;-47
2023/06/18 15:25:28;;;;;;;8.73;5.40;;;;;;;24.82;36.76;100923.16;16124894;19;128857;-48
2023/06/18 15:30:51;;;;;;;6.47;4.82;;;;;;;24.84;37.12;100921.75;16120823;19;130220;-49
2023/06/18 15:36:13;;;;;;;11.20;5.18;;;;;;;24.86;37.04;100927.06;16119222;19;130649;-49
2023/06/18 15:41:38;;;;;;;9.32;5.18;;;;;;;24.84;37.21;100916.16;16115393;19;130168;-48
2023/06/18 15:47:00;;;;;;;9.68;5.15;;;;;;;24.82;36.95;100903.56;16109886;19;129527;-49
2023/06/18 15:52:22;;;;;;;13.43;5.10;;;;;;;24.79;37.43;100896.59;16110374;19;130315;-50
2023/06/18 15:57:44;;;;;;;12.52;5.40;;;;;;;24.78;37.49;100894.91;16117009;19;130575;-47
2023/06/18 16:03:07;;;;;;;8.20;5.22;;;;;;;24.76;37.61;100894.38;16117350;19;131117;-47
2023/06/18 16:08:29;;;;;;;15.13;5.63;;;;;;;24.76;37.89;100885.16;16120769;19;130553;-52
2023/06/18 16:13:51;;;;;;;12.20;5.28;;;;;;;24.73;38.16;100881.81;16111673;19;129935;-47
2023/06/18 16:19:13;;;;;;;12.20;5.35;;;;;;;24.72;38.29;100879.31;16115470;19;129837;-48
2023/06/18 16:24:35;;;;;;;13.45;5.03;;;;;;;24.71;38.21;100869.25;16116139;19;133647;-49
2023/06/18 16:29:58;;;;;;;10.70;5.38;;;;;;;24.70;39.01;100867.56;16114265;19;131453;-49
2023/06/18 16:35:22;;;;;;;9.73;6.05;;;;;;;24.69;39.47;100860.28;16111642;19;129436;-46
2023/06/18 16:40:44;;;;;;;8.40;5.53;;;;;;;24.67;39.60;100854.16;16110928;19;129444;-48
2023/06/18 16:46:07;;;;;;;13.52;5.80;;;;;;;24.66;39.39;100844.09;16114615;19;129614;-49
2023/06/18 16:51:29;;;;;;;8.80;5.40;;;;;;;24.64;39.17;100841.59;16117219;19;131242;-53
2023/06/18 16:56:51;;;;;;;13.05;6.22;;;;;;;24.65;39.06;100828.44;16112595;19;129390;-52
2023/06/18 17:02:13;;;;;;;14.50;5.30;;;;;;;24.65;38.92;100822.81;16110846;19;130955;-56
2023/06/18 17:07:35;;;;;;;7.05;5.60;;;;;;;24.65;38.28;100817.22;16113612;19;131313;-51
2023/06/18 17:12:57;;;;;;;9.23;5.40;;;;;;;24.64;38.57;100793.19;16108940;19;129805;-54
2023/06/18 17:18:18;;;;;;;9.00;5.72;;;;;;;24.62;38.36;100792.63;16116032;19;131184;-53
2023/06/18 17:23:40;;;;;;;6.75;5.47;;;;;;;24.64;38.39;100782.00;16113983;19;130625;-51
2023/06/18 17:29:03;;;;;;;14.85;5.93;;;;;;;24.64;38.06;100776.41;16109175;19;129670;-48
2023/06/18 17:34:25;;;;;;;16.05;5.57;;;;;;;24.65;38.46;100766.88;16103625;19;131606;-49
2023/06/18 17:39:47;;;;;;;10.18;5.45;;;;;;;24.66;38.65;100754.56;16109554;19;129641;-48
2023/06/18 17:45:09;;;;;;;13.65;5.78;;;;;;;24.63;38.60;100750.41;16104693;19;131246;-50
2023/06/18 17:50:31;;;;;;;12.63;6.05;;;;;;;24.61;38.79;100744.25;16099599;19;129723;-51
2023/06/18 17:55:53;;;;;;;18.70;5.82;;;;;;;24.61;38.56;100751.84;16114876;19;130025;-49
2023/06/18 18:01:15;;;;;;;10.07;6.00;;;;;;;24.60;37.95;100745.38;16111163;19;131175;-51
2023/06/18 18:06:37;;;;;;;10.63;5.63;;;;;;;24.60;38.55;100755.75;16104627;19;130955;-49
2023/06/18 18:11:59;;;;;;;15.95;6.55;;;;;;;24.62;38.22;100761.88;16112169;19;130191;-51
2023/06/18 18:17:21;;;;;;;11.70;5.65;;;;;;;24.61;38.32;100755.44;16104130;19;129256;-54
2023/06/18 18:22:43;;;;;;;9.63;5.75;;;;;;;24.62;38.29;100750.69;16111563;19;129482;-48
2023/06/18 18:28:05;;;;;;;9.20;5.38;;;;;;;24.62;38.25;100750.69;16105661;19;130298;-47
2023/06/18 18:33:27;;;;;;;10.10;5.57;;;;;;;24.61;38.06;100754.63;16106190;19;130258;-52
2023/06/18 18:38:49;;;;;;;12.45;5.47;;;;;;;24.60;38.24;100748.19;16105422;19;130640;-53
2023/06/18 18:44:11;;;;;;;12.75;6.15;;;;;;;24.58;38.30;100756.88;16097151;19;130907;-52
2023/06/18 18:49:33;;;;;;;10.30;6.15;;;;;;;24.58;38.64;100745.69;16101986;19;131008;-47
2023/06/18 18:54:55;;;;;;;11.00;5.53;;;;;;;24.61;38.49;100749.84;16122175;19;135176;-47
2023/06/18 19:00:18;;;;;;;8.93;5.47;;;;;;;24.62;38.33;100747.88;16132067;19;130468;-46
2023/06/18 19:05:40;;;;;;;10.80;6.13;;;;;;;24.62;38.33;100750.69;16131503;19;129580;-46
2023/06/18 19:11:02;;;;;;;15.45;6.20;;;;;;;24.62;38.35;100750.69;16126743;19;131859;-50
2023/06/18 19:16:25;;;;;;;11.48;5.95;;;;;;;24.60;38.49;100748.19;16130579;19;130871;-47
2023/06/18 19:21:47;;;;;;;17.38;6.00;;;;;;;24.56;38.53;100747.94;16128695;19;130022;-48
2023/06/18 19:27:09;;;;;;;11.07;5.50;;;;;;;24.53;38.54;100754.09;16133519;19;131125;-49
2023/06/18 19:32:31;;;;;;;14.75;5.95;;;;;;;24.54;38.32;100763.34;16135198;19;131469;-46
2023/06/18 19:37:54;;;;;;;17.40;7.38;;;;;;;24.54;38.44;100766.16;16132955;19;130702;-47
2023/06/18 19:43:16;;;;;;;16.30;6.65;;;;;;;24.55;38.19;100768.63;16133011;19;130715;-52
2023/06/18 19:48:38;;;;;;;12.38;6.63;;;;;;;24.55;38.72;100774.25;16132648;19;130562;-51
2023/06/18 19:54:00;;;;;;;17.58;7.25;;;;;;;24.54;38.32;100789.34;16129975;19;130195;-48
2023/06/18 19:59:22;;;;;;;20.45;7.05;;;;;;;24.51;38.35;100784.31;16129761;19;131045;-51
2023/06/18 20:04:44;;;;;;;13.30;6.30;;;;;;;24.49;38.61;100796.94;16120033;19;130209;-47
2023/06/18 20:10:07;;;;;;;14.43;6.68;;;;;;;24.49;38.50;100808.13;16118133;19;130166;-46
2023/06/18 20:15:29;;;;;;;15.95;6.80;;;;;;;24.48;38.57;100796.13;16114037;19;130724;-48
2023/06/18 20:20:53;;;;;;;11.32;6.45;;;;;;;24.47;38.26;100794.44;16107213;19;130289;-48
2023/06/18 20:26:15;;;;;;;10.98;6.80;;;;;;;24.46;38.67;100787.16;16117782;19;130985;-51
2023/06/18 20:31:37;;;;;;;10.48;6.72;;;;;;;24.45;38.45;100777.09;16115755;19;130060;-46
2023/06/18 20:36:59;;;;;;;10.88;6.22;;;;;;;24.42;38.54;100763.69;16114035;19;131028;-47
2023/06/18 20:42:23;;;;;;;8.88;5.97;;;;;;;24.40;38.47;100774.34;16117488;19;130360;-51
2023/06/18 20:47:45;;;;;;;7.20;5.82;;;;;;;24.39;38.84;100772.66;16119155;19;131795;-48
2023/06/18 20:53:07;;;;;;;11.95;6.05;;;;;;;24.35;38.67;100755.63;16115491;19;129380;-51
2023/06/18 20:58:29;;;;;;;15.98;5.95;;;;;;;24.35;38.60;100757.59;16116936;19;131057;-45
2023/06/18 21:03:52;;;;;;;8.95;6.05;;;;;;;24.32;38.55;100730.22;16111394;19;129961;-52
2023/06/18 21:09:14;;;;;;;9.95;5.93;;;;;;;24.31;38.53;100718.19;16124573;19;131025;-47
2023/06/18 21:14:36;;;;;;;10.43;6.32;;;;;;;24.30;38.30;100701.72;16116619;19;130219;-50
2023/06/18 21:19:58;;;;;;;9.27;5.65;;;;;;;24.29;38.52;100702.84;16113038;19;129975;-47
2023/06/18 21:25:21;;;;;;;7.95;5.65;;;;;;;24.26;38.31;100702.28;16115423;19;130664;-46
2023/06/18 21:30:43;;;;;;;6.13;5.20;;;;;;;24.24;38.67;100701.78;16106141;19;130734;-48
2023/06/18 21:36:05;;;;;;;6.72;6.03;;;;;;;24.21;38.54;100685.53;16111100;19;131886;-47
2023/06/18 21:41:28;;;;;;;6.15;5.30;;;;;;;24.19;38.70;100654.25;16112592;19;130441;-47
2023/06/18 21:46:50;;;;;;;8.50;5.75;;;;;;;24.18;38.46;100680.53;16104620;19;132067;-48
2023/06/18 21:52:12;;;;;;;7.55;5.05;;;;;;;24.18;38.62;100691.72;16114345;19;129632;-50
2023/06/18 21:57:35;;;;;;;8.27;4.93;;;;;;;24.17;38.76;100717.16;16113661;19;130278;-49
2023/06/18 22:02:56;;;;;;;8.48;5.60;;;;;;;24.16;38.56;100716.31;16107250;19;129575;-49
2023/06/18 22:08:19;;;;;;;6.95;5.28;;;;;;;24.15;38.85;100703.47;16106079;19;129592;-48
2023/06/18 22:13:46;;;;;;;7.70;5.50;;;;;;;24.15;38.66;100737.00;16105093;19;130227;-52
2023/06/18 22:19:15;;;;;;;9.10;5.30;;;;;;;24.15;38.34;100745.38;16098271;19;131621;-51
2023/06/18 22:24:37;;;;;;;7.13;5.05;;;;;;;24.12;38.59;100749.59;16107108;19;129611;-47
2023/06/18 22:29:59;;;;;;;8.52;5.72;;;;;;;24.11;38.58;100758.28;16103409;19;130753;-49
2023/06/18 22:35:22;;;;;;;6.22;4.97;;;;;;;24.09;38.66;100755.75;16104270;19;130027;-48
2023/06/18 22:40:44;;;;;;;6.10;4.65;;;;;;;24.10;38.60;100765.00;16101721;19;130679;-47
2023/06/18 22:46:06;;;;;;;5.97;4.90;;;;;;;24.08;38.77;100768.06;16101422;19;130639;-49
2023/06/18 22:51:28;;;;;;;5.30;4.80;;;;;;;24.09;39.00;100763.31;16103223;19;130878;-48
2023/06/18 22:56:51;;;;;;;5.78;4.57;;;;;;;24.09;38.79;100774.50;16103727;19;129818;-50
2023/06/18 23:02:13;;;;;;;5.18;4.63;;;;;;;24.07;38.80;100766.38;16108356;19;130776;-53
2023/06/18 23:07:36;;;;;;;5.35;4.85;;;;;;;24.07;38.82;100765.56;16103693;19;129519;-49
2023/06/18 23:12:58;;;;;;;5.63;5.10;;;;;;;24.06;38.81;100766.69;16099971;19;131076;-47
2023/06/18 23:18:19;;;;;;;7.03;5.15;;;;;;;24.06;38.97;100761.09;16105325;19;131025;-50
2023/06/18 23:23:41;;;;;;;6.97;4.65;;;;;;;24.06;38.94;100766.69;16104738;19;129428;-48
2023/06/18 23:29:04;;;;;;;5.45;4.60;;;;;;;24.04;38.55;100763.34;16099853;19;130013;-48
2023/06/18 23:34:26;;;;;;;4.95;4.53;;;;;;;24.05;38.87;100765.00;16101223;19;129848;-49
2023/06/18 23:39:50;;;;;;;5.47;4.55;;;;;;;24.04;38.65;100774.50;16100876;19;130718;-48
2023/06/18 23:45:12;;;;;;;6.60;4.80;;;;;;;24.04;38.92;100780.09;16114031;19;131144;-50
2023/06/18 23:50:35;;;;;;;4.68;4.10;;;;;;;24.03;38.43;100789.59;16119350;19;131663;-46
2023/06/18 23:55:57;;;;;;;5.47;4.65;;;;;;;24.01;38.80;100792.69;16115782;19;135295;-46
